sensor_id;sensor_type;location;lat;lon;timestamp;P1;durP1;ratioP1;P2;durP2;ratioP2
1509;SDS011;746;48.688;9.428;2023-06-04T00:00:28;8.70;;;7.53;;
1509;SDS011;746;48.688;9.428;2023-06-04T00:02:49;8.83;;;7.93;;
1509;SDS011;746;48.688;9.428;2023-06-04T00:05:11;8.70;;;7.80;;
1509;SDS011;746;48.688;9.428;2023-06-04T00:07:32;8.67;;;7.73;;
1509;SDS011;746;48.688;9.428;2023-06-04T00:09:54;8.80;;;7.70;;
1509;SDS011;746;48.688;9.428;2023-06-04T00:12:15;8.77;;;7.87;;
1509;SDS011;746;48.688;9.428;2023-06-04T00:14:36;8.53;;;7.73;;
1509;SDS011;746;48.688;9.428;2023-06-04T00:16:57;8.53;;;7.70;;
1509;SDS011;746;48.688;9.428;2023-06-04T00:19:19;8.60;;;7.80;;
1509;SDS011;746;48.688;9.428;2023-06-04T00:21:41;9.87;;;7.73;;
1509;SDS011;746;48.688;9.428;2023-06-04T00:24:03;9.13;;;8.23;;
1509;SDS011;746;48.688;9.428;2023-06-04T00:26:24;8.07;;;7.27;;
1509;SDS011;746;48.688;9.428;2023-06-04T00:28:46;9.00;;;7.93;;
1509;SDS011;746;48.688;9.428;2023-06-04T00:31:07;10.27;;;7.53;;
1509;SDS011;746;48.688;9.428;2023-06-04T00:33:30;8.30;;;7.60;;
1509;SDS011;746;48.688;9.428;2023-06-04T00:35:51;8.77;;;7.47;;
1509;SDS011;746;48.688;9.428;2023-06-04T00:38:14;8.73;;;7.20;;
1509;SDS011;746;48.688;9.428;2023-06-04T00:40:35;7.77;;;7.07;;
1509;SDS011;746;48.688;9.428;2023-06-04T00:42:57;10.07;;;7.63;;
1509;SDS011;746;48.688;9.428;2023-06-04T00:45:18;7.77;;;6.77;;
1509;SDS011;746;48.688;9.428;2023-06-04T00:47:40;7.43;;;6.73;;
1509;SDS011;746;48.688;9.428;2023-06-04T00:50:01;7.93;;;7.13;;
1509;SDS011;746;48.688;9.428;2023-06-04T00:52:22;8.10;;;7.30;;
1509;SDS011;746;48.688;9.428;2023-06-04T00:54:45;7.60;;;7.00;;
1509;SDS011;746;48.688;9.428;2023-06-04T00:57:06;8.47;;;7.57;;
1509;SDS011;746;48.688;9.428;2023-06-04T00:59:28;7.90;;;7.10;;
1509;SDS011;746;48.688;9.428;2023-06-04T01:01:54;7.80;;;7.10;;
1509;SDS011;746;48.688;9.428;2023-06-04T01:04:18;7.60;;;6.87;;
1509;SDS011;746;48.688;9.428;2023-06-04T01:06:42;7.13;;;6.37;;
1509;SDS011;746;48.688;9.428;2023-06-04T01:09:04;7.07;;;6.37;;
1509;SDS011;746;48.688;9.428;2023-06-04T01:11:33;8.17;;;7.37;;
1509;SDS011;746;48.688;9.428;2023-06-04T01:13:55;8.30;;;7.50;;
1509;SDS011;746;48.688;9.428;2023-06-04T01:16:16;7.17;;;6.33;;
1509;SDS011;746;48.688;9.428;2023-06-04T01:18:38;7.80;;;7.10;;
1509;SDS011;746;48.688;9.428;2023-06-04T01:21:01;7.60;;;6.90;;
1509;SDS011;746;48.688;9.428;2023-06-04T01:23:30;7.70;;;6.90;;
1509;SDS011;746;48.688;9.428;2023-06-04T01:25:54;7.63;;;6.80;;
1509;SDS011;746;48.688;9.428;2023-06-04T01:28:18;6.50;;;5.90;;
1509;SDS011;746;48.688;9.428;2023-06-04T01:30:42;7.13;;;5.90;;
1509;SDS011;746;48.688;9.428;2023-06-04T01:33:05;7.20;;;6.50;;
1509;SDS011;746;48.688;9.428;2023-06-04T01:35:27;7.73;;;7.03;;
1509;SDS011;746;48.688;9.428;2023-06-04T01:37:49;7.77;;;6.97;;
1509;SDS011;746;48.688;9.428;2023-06-04T01:40:11;7.20;;;6.43;;
1509;SDS011;746;48.688;9.428;2023-06-04T01:42:33;6.63;;;6.03;;
1509;SDS011;746;48.688;9.428;2023-06-04T01:44:55;7.60;;;6.90;;
1509;SDS011;746;48.688;9.428;2023-06-04T01:47:17;7.07;;;6.27;;
1509;SDS011;746;48.688;9.428;2023-06-04T01:49:38;7.00;;;6.30;;
1509;SDS011;746;48.688;9.428;2023-06-04T01:52:00;7.97;;;6.17;;
1509;SDS011;746;48.688;9.428;2023-06-04T01:54:21;7.70;;;7.00;;
1509;SDS011;746;48.688;9.428;2023-06-04T01:56:43;7.20;;;6.43;;
1509;SDS011;746;48.688;9.428;2023-06-04T01:59:04;7.13;;;6.43;;
1509;SDS011;746;48.688;9.428;2023-06-04T02:01:27;7.43;;;6.73;;
1509;SDS011;746;48.688;9.428;2023-06-04T02:03:48;7.10;;;6.50;;
1509;SDS011;746;48.688;9.428;2023-06-04T02:06:09;8.07;;;7.27;;
1509;SDS011;746;48.688;9.428;2023-06-04T02:08:31;7.33;;;6.67;;
1509;SDS011;746;48.688;9.428;2023-06-04T02:10:53;7.67;;;6.93;;
1509;SDS011;746;48.688;9.428;2023-06-04T02:13:14;7.87;;;7.07;;
1509;SDS011;746;48.688;9.428;2023-06-04T02:15:36;7.77;;;6.97;;
1509;SDS011;746;48.688;9.428;2023-06-04T02:17:59;8.07;;;6.87;;
1509;SDS011;746;48.688;9.428;2023-06-04T02:20:22;8.40;;;6.50;;
1509;SDS011;746;48.688;9.428;2023-06-04T02:22:44;7.43;;;6.80;;
1509;SDS011;746;48.688;9.428;2023-06-04T02:25:05;8.47;;;7.30;;
1509;SDS011;746;48.688;9.428;2023-06-04T02:27:29;8.23;;;6.90;;
1509;SDS011;746;48.688;9.428;2023-06-04T02:29:50;7.77;;;6.80;;
1509;SDS011;746;48.688;9.428;2023-06-04T02:32:11;7.83;;;7.13;;
1509;SDS011;746;48.688;9.428;2023-06-04T02:34:34;8.13;;;6.87;;
1509;SDS011;746;48.688;9.428;2023-06-04T02:36:56;7.47;;;6.13;;
1509;SDS011;746;48.688;9.428;2023-06-04T02:39:18;6.83;;;6.23;;
1509;SDS011;746;48.688;9.428;2023-06-04T02:41:39;7.20;;;6.30;;
1509;SDS011;746;48.688;9.428;2023-06-04T02:44:01;6.47;;;5.77;;
1509;SDS011;746;48.688;9.428;2023-06-04T02:46:22;6.47;;;5.97;;
1509;SDS011;746;48.688;9.428;2023-06-04T02:48:43;6.57;;;5.97;;
1509;SDS011;746;48.688;9.428;2023-06-04T02:51:06;6.23;;;5.73;;
1509;SDS011;746;48.688;9.428;2023-06-04T02:53:30;6.67;;;6.07;;
1509;SDS011;746;48.688;9.428;2023-06-04T02:55:51;6.30;;;5.70;;
1509;SDS011;746;48.688;9.428;2023-06-04T02:58:13;6.00;;;5.33;;
1509;SDS011;746;48.688;9.428;2023-06-04T03:00:34;6.20;;;5.67;;
1509;SDS011;746;48.688;9.428;2023-06-04T03:02:56;6.13;;;5.53;;
1509;SDS011;746;48.688;9.428;2023-06-04T03:05:21;7.00;;;6.10;;
1509;SDS011;746;48.688;9.428;2023-06-04T03:07:48;6.70;;;6.00;;
1509;SDS011;746;48.688;9.428;2023-06-04T03:10:09;6.13;;;5.50;;
1509;SDS011;746;48.688;9.428;2023-06-04T03:12:31;5.57;;;5.07;;
1509;SDS011;746;48.688;9.428;2023-06-04T03:14:52;6.07;;;5.40;;
1509;SDS011;746;48.688;9.428;2023-06-04T03:17:14;6.40;;;5.73;;
1509;SDS011;746;48.688;9.428;2023-06-04T03:19:35;6.07;;;5.57;;
1509;SDS011;746;48.688;9.428;2023-06-04T03:21:56;6.00;;;5.50;;
1509;SDS011;746;48.688;9.428;2023-06-04T03:24:22;6.40;;;5.43;;
1509;SDS011;746;48.688;9.428;2023-06-04T03:26:43;5.90;;;5.30;;
1509;SDS011;746;48.688;9.428;2023-06-04T03:29:04;6.17;;;5.67;;
1509;SDS011;746;48.688;9.428;2023-06-04T03:31:26;6.10;;;5.60;;
1509;SDS011;746;48.688;9.428;2023-06-04T03:33:47;5.90;;;5.40;;
1509;SDS011;746;48.688;9.428;2023-06-04T03:36:08;6.20;;;5.60;;
1509;SDS011;746;48.688;9.428;2023-06-04T03:38:30;6.60;;;5.20;;
1509;SDS011;746;48.688;9.428;2023-06-04T03:40:52;6.60;;;5.93;;
1509;SDS011;746;48.688;9.428;2023-06-04T03:43:14;5.93;;;5.43;;
1509;SDS011;746;48.688;9.428;2023-06-04T03:45:35;5.73;;;5.27;;
1509;SDS011;746;48.688;9.428;2023-06-04T03:47:56;6.10;;;5.50;;
1509;SDS011;746;48.688;9.428;2023-06-04T03:50:18;6.10;;;5.50;;
1509;SDS011;746;48.688;9.428;2023-06-04T03:52:39;5.53;;;5.03;;
1509;SDS011;746;48.688;9.428;2023-06-04T03:55:01;6.07;;;5.47;;
1509;SDS011;746;48.688;9.428;2023-06-04T03:57:24;5.57;;;5.17;;
1509;SDS011;746;48.688;9.428;2023-06-04T03:59:45;6.13;;;5.53;;
1509;SDS011;746;48.688;9.428;2023-06-04T04:02:07;6.73;;;5.37;;
1509;SDS011;746;48.688;9.428;2023-06-04T04:04:28;6.37;;;5.60;;
1509;SDS011;746;48.688;9.428;2023-06-04T04:06:50;5.67;;;5.23;;
1509;SDS011;746;48.688;9.428;2023-06-04T04:09:11;5.80;;;5.20;;
1509;SDS011;746;48.688;9.428;2023-06-04T04:11:32;5.47;;;4.93;;
1509;SDS011;746;48.688;9.428;2023-06-04T04:13:55;6.00;;;5.47;;
1509;SDS011;746;48.688;9.428;2023-06-04T04:16:16;6.63;;;5.67;;
1509;SDS011;746;48.688;9.428;2023-06-04T04:18:38;6.03;;;5.07;;
1509;SDS011;746;48.688;9.428;2023-06-04T04:20:59;7.83;;;5.20;;
1509;SDS011;746;48.688;9.428;2023-06-04T04:23:20;5.77;;;5.20;;
1509;SDS011;746;48.688;9.428;2023-06-04T04:25:41;6.03;;;5.03;;
1509;SDS011;746;48.688;9.428;2023-06-04T04:28:03;5.67;;;5.17;;
1509;SDS011;746;48.688;9.428;2023-06-04T04:30:28;6.57;;;4.80;;
1509;SDS011;746;48.688;9.428;2023-06-04T04:32:53;5.20;;;4.80;;
1509;SDS011;746;48.688;9.428;2023-06-04T04:35:16;5.10;;;4.60;;
1509;SDS011;746;48.688;9.428;2023-06-04T04:37:38;4.93;;;4.47;;
1509;SDS011;746;48.688;9.428;2023-06-04T04:40:00;5.40;;;4.80;;
1509;SDS011;746;48.688;9.428;2023-06-04T04:42:21;5.27;;;4.77;;
1509;SDS011;746;48.688;9.428;2023-06-04T04:44:43;5.77;;;5.27;;
1509;SDS011;746;48.688;9.428;2023-06-04T04:47:08;5.43;;;4.93;;
1509;SDS011;746;48.688;9.428;2023-06-04T04:49:30;5.10;;;4.70;;
1509;SDS011;746;48.688;9.428;2023-06-04T04:51:51;5.07;;;4.60;;
1509;SDS011;746;48.688;9.428;2023-06-04T04:54:12;6.20;;;4.40;;
1509;SDS011;746;48.688;9.428;2023-06-04T04:56:34;4.57;;;4.17;;
1509;SDS011;746;48.688;9.428;2023-06-04T04:58:55;5.17;;;4.40;;
1509;SDS011;746;48.688;9.428;2023-06-04T05:01:16;4.40;;;4.00;;
1509;SDS011;746;48.688;9.428;2023-06-04T05:03:38;5.07;;;4.07;;
1509;SDS011;746;48.688;9.428;2023-06-04T05:06:00;4.40;;;4.10;;
1509;SDS011;746;48.688;9.428;2023-06-04T05:08:21;6.90;;;4.47;;
1509;SDS011;746;48.688;9.428;2023-06-04T05:10:42;4.37;;;3.97;;
1509;SDS011;746;48.688;9.428;2023-06-04T05:13:04;5.47;;;3.50;;
1509;SDS011;746;48.688;9.428;2023-06-04T05:15:26;4.23;;;3.83;;
1509;SDS011;746;48.688;9.428;2023-06-04T05:17:48;3.90;;;3.43;;
1509;SDS011;746;48.688;9.428;2023-06-04T05:20:11;3.47;;;3.13;;
1509;SDS011;746;48.688;9.428;2023-06-04T05:22:33;3.80;;;3.10;;
1509;SDS011;746;48.688;9.428;2023-06-04T05:24:56;4.10;;;3.70;;
1509;SDS011;746;48.688;9.428;2023-06-04T05:27:19;4.03;;;3.53;;
1509;SDS011;746;48.688;9.428;2023-06-04T05:29:40;3.50;;;3.20;;
1509;SDS011;746;48.688;9.428;2023-06-04T05:32:01;6.93;;;3.10;;
1509;SDS011;746;48.688;9.428;2023-06-04T05:34:23;3.13;;;2.90;;
1509;SDS011;746;48.688;9.428;2023-06-04T05:36:45;4.17;;;3.10;;
1509;SDS011;746;48.688;9.428;2023-06-04T05:39:06;3.33;;;3.10;;
1509;SDS011;746;48.688;9.428;2023-06-04T05:41:29;5.40;;;3.20;;
1509;SDS011;746;48.688;9.428;2023-06-04T05:43:52;3.73;;;3.30;;
1509;SDS011;746;48.688;9.428;2023-06-04T05:46:13;3.70;;;3.40;;
1509;SDS011;746;48.688;9.428;2023-06-04T05:48:35;4.63;;;3.20;;
1509;SDS011;746;48.688;9.428;2023-06-04T05:50:56;2.93;;;2.73;;
1509;SDS011;746;48.688;9.428;2023-06-04T05:53:18;3.90;;;3.10;;
1509;SDS011;746;48.688;9.428;2023-06-04T05:55:41;6.70;;;2.90;;
1509;SDS011;746;48.688;9.428;2023-06-04T05:58:02;5.50;;;3.10;;
1509;SDS011;746;48.688;9.428;2023-06-04T06:00:23;3.23;;;3.00;;
1509;SDS011;746;48.688;9.428;2023-06-04T06:02:45;3.53;;;3.17;;
1509;SDS011;746;48.688;9.428;2023-06-04T06:05:09;3.20;;;2.90;;
1509;SDS011;746;48.688;9.428;2023-06-04T06:07:30;4.23;;;2.70;;
1509;SDS011;746;48.688;9.428;2023-06-04T06:09:53;3.30;;;3.00;;
1509;SDS011;746;48.688;9.428;2023-06-04T06:12:15;2.90;;;2.70;;
1509;SDS011;746;48.688;9.428;2023-06-04T06:14:37;3.17;;;2.90;;
1509;SDS011;746;48.688;9.428;2023-06-04T06:16:58;3.00;;;2.47;;
1509;SDS011;746;48.688;9.428;2023-06-04T06:19:20;3.07;;;2.80;;
1509;SDS011;746;48.688;9.428;2023-06-04T06:21:41;3.40;;;3.10;;
1509;SDS011;746;48.688;9.428;2023-06-04T06:24:03;3.20;;;2.90;;
1509;SDS011;746;48.688;9.428;2023-06-04T06:26:26;3.00;;;2.80;;
1509;SDS011;746;48.688;9.428;2023-06-04T06:28:47;3.20;;;2.90;;
1509;SDS011;746;48.688;9.428;2023-06-04T06:31:08;4.70;;;2.90;;
1509;SDS011;746;48.688;9.428;2023-06-04T06:33:30;3.50;;;2.53;;
1509;SDS011;746;48.688;9.428;2023-06-04T06:35:51;2.83;;;2.60;;
1509;SDS011;746;48.688;9.428;2023-06-04T06:38:12;4.20;;;2.73;;
1509;SDS011;746;48.688;9.428;2023-06-04T06:40:37;2.73;;;2.53;;
1509;SDS011;746;48.688;9.428;2023-06-04T06:43:00;3.20;;;2.90;;
1509;SDS011;746;48.688;9.428;2023-06-04T06:45:21;3.93;;;2.70;;
1509;SDS011;746;48.688;9.428;2023-06-04T06:47:43;4.43;;;2.70;;
1509;SDS011;746;48.688;9.428;2023-06-04T06:50:05;3.90;;;3.03;;
1509;SDS011;746;48.688;9.428;2023-06-04T06:52:26;2.97;;;2.77;;
1509;SDS011;746;48.688;9.428;2023-06-04T06:54:47;3.10;;;2.83;;
1509;SDS011;746;48.688;9.428;2023-06-04T06:57:09;3.17;;;2.70;;
1509;SDS011;746;48.688;9.428;2023-06-04T06:59:31;3.60;;;2.80;;
1509;SDS011;746;48.688;9.428;2023-06-04T07:01:53;3.50;;;3.20;;
1509;SDS011;746;48.688;9.428;2023-06-04T07:04:14;3.20;;;2.80;;
1509;SDS011;746;48.688;9.428;2023-06-04T07:06:36;3.13;;;2.90;;
1509;SDS011;746;48.688;9.428;2023-06-04T07:08:57;4.17;;;3.10;;
1509;SDS011;746;48.688;9.428;2023-06-04T07:11:19;4.50;;;3.20;;
1509;SDS011;746;48.688;9.428;2023-06-04T07:13:42;4.23;;;2.87;;
1509;SDS011;746;48.688;9.428;2023-06-04T07:16:04;4.17;;;3.10;;
1509;SDS011;746;48.688;9.428;2023-06-04T07:18:26;2.67;;;2.47;;
1509;SDS011;746;48.688;9.428;2023-06-04T07:20:48;3.87;;;2.90;;
1509;SDS011;746;48.688;9.428;2023-06-04T07:23:09;4.17;;;3.00;;
1509;SDS011;746;48.688;9.428;2023-06-04T07:25:30;3.17;;;2.87;;
1509;SDS011;746;48.688;9.428;2023-06-04T07:27:52;3.60;;;3.00;;
1509;SDS011;746;48.688;9.428;2023-06-04T07:30:13;3.63;;;3.33;;
1509;SDS011;746;48.688;9.428;2023-06-04T07:32:36;4.40;;;2.97;;
1509;SDS011;746;48.688;9.428;2023-06-04T07:34:57;6.20;;;3.00;;
1509;SDS011;746;48.688;9.428;2023-06-04T07:37:18;3.00;;;2.63;;
1509;SDS011;746;48.688;9.428;2023-06-04T07:39:39;3.53;;;3.20;;
1509;SDS011;746;48.688;9.428;2023-06-04T07:42:01;3.27;;;2.97;;
1509;SDS011;746;48.688;9.428;2023-06-04T07:44:22;3.13;;;2.87;;
1509;SDS011;746;48.688;9.428;2023-06-04T07:46:43;3.80;;;3.17;;
1509;SDS011;746;48.688;9.428;2023-06-04T07:49:06;6.60;;;2.93;;
1509;SDS011;746;48.688;9.428;2023-06-04T07:51:27;4.13;;;2.77;;
1509;SDS011;746;48.688;9.428;2023-06-04T07:53:49;5.53;;;3.30;;
1509;SDS011;746;48.688;9.428;2023-06-04T07:56:10;3.83;;;3.53;;
1509;SDS011;746;48.688;9.428;2023-06-04T07:58:31;4.40;;;3.20;;
1509;SDS011;746;48.688;9.428;2023-06-04T08:00:53;4.00;;;3.27;;
1509;SDS011;746;48.688;9.428;2023-06-04T08:03:14;3.47;;;3.17;;
1509;SDS011;746;48.688;9.428;2023-06-04T08:05:37;4.10;;;3.27;;
1509;SDS011;746;48.688;9.428;2023-06-04T08:07:58;3.70;;;3.03;;
1509;SDS011;746;48.688;9.428;2023-06-04T08:10:20;4.27;;;3.33;;
1509;SDS011;746;48.688;9.428;2023-06-04T08:12:41;6.47;;;3.60;;
1509;SDS011;746;48.688;9.428;2023-06-04T08:15:03;3.27;;;3.00;;
1509;SDS011;746;48.688;9.428;2023-06-04T08:17:25;3.90;;;3.03;;
1509;SDS011;746;48.688;9.428;2023-06-04T08:19:46;3.93;;;3.10;;
1509;SDS011;746;48.688;9.428;2023-06-04T08:22:09;3.60;;;3.20;;
1509;SDS011;746;48.688;9.428;2023-06-04T08:24:31;3.63;;;3.37;;
1509;SDS011;746;48.688;9.428;2023-06-04T08:26:52;5.50;;;3.23;;
1509;SDS011;746;48.688;9.428;2023-06-04T08:29:14;3.77;;;3.47;;
1509;SDS011;746;48.688;9.428;2023-06-04T08:31:35;5.33;;;3.87;;
1509;SDS011;746;48.688;9.428;2023-06-04T08:33:56;10.90;;;3.77;;
1509;SDS011;746;48.688;9.428;2023-06-04T08:36:18;3.57;;;3.17;;
1509;SDS011;746;48.688;9.428;2023-06-04T08:38:41;4.57;;;3.50;;
1509;SDS011;746;48.688;9.428;2023-06-04T08:41:09;5.27;;;3.13;;
1509;SDS011;746;48.688;9.428;2023-06-04T08:43:31;3.30;;;3.10;;
1509;SDS011;746;48.688;9.428;2023-06-04T08:45:53;4.70;;;3.70;;
1509;SDS011;746;48.688;9.428;2023-06-04T08:48:18;3.80;;;3.37;;
1509;SDS011;746;48.688;9.428;2023-06-04T08:50:42;3.93;;;3.60;;
1509;SDS011;746;48.688;9.428;2023-06-04T08:53:07;3.70;;;3.37;;
1509;SDS011;746;48.688;9.428;2023-06-04T08:55:31;3.63;;;3.40;;
1509;SDS011;746;48.688;9.428;2023-06-04T08:57:52;3.87;;;3.43;;
1509;SDS011;746;48.688;9.428;2023-06-04T09:00:14;7.63;;;3.80;;
1509;SDS011;746;48.688;9.428;2023-06-04T09:02:36;3.80;;;3.50;;
1509;SDS011;746;48.688;9.428;2023-06-04T09:04:58;3.87;;;3.47;;
1509;SDS011;746;48.688;9.428;2023-06-04T09:07:21;5.03;;;3.43;;
1509;SDS011;746;48.688;9.428;2023-06-04T09:09:44;4.50;;;3.40;;
1509;SDS011;746;48.688;9.428;2023-06-04T09:12:19;3.80;;;3.60;;
1509;SDS011;746;48.688;9.428;2023-06-04T09:14:42;3.70;;;3.20;;
1509;SDS011;746;48.688;9.428;2023-06-04T09:17:03;4.73;;;3.67;;
1509;SDS011;746;48.688;9.428;2023-06-04T09:19:25;4.17;;;3.77;;
1509;SDS011;746;48.688;9.428;2023-06-04T09:21:48;4.57;;;3.77;;
1509;SDS011;746;48.688;9.428;2023-06-04T09:24:09;4.37;;;3.53;;
1509;SDS011;746;48.688;9.428;2023-06-04T09:26:30;4.37;;;3.70;;
1509;SDS011;746;48.688;9.428;2023-06-04T09:28:53;5.67;;;4.03;;
1509;SDS011;746;48.688;9.428;2023-06-04T09:31:18;3.80;;;3.50;;
1509;SDS011;746;48.688;9.428;2023-06-04T09:33:42;4.17;;;3.70;;
1509;SDS011;746;48.688;9.428;2023-06-04T09:36:03;4.27;;;3.60;;
1509;SDS011;746;48.688;9.428;2023-06-04T09:38:32;4.17;;;3.80;;
1509;SDS011;746;48.688;9.428;2023-06-04T09:40:53;4.20;;;3.80;;
1509;SDS011;746;48.688;9.428;2023-06-04T09:43:20;4.20;;;3.90;;
1509;SDS011;746;48.688;9.428;2023-06-04T09:45:43;5.53;;;3.70;;
1509;SDS011;746;48.688;9.428;2023-06-04T09:48:04;3.87;;;3.57;;
1509;SDS011;746;48.688;9.428;2023-06-04T09:50:29;3.80;;;3.53;;
1509;SDS011;746;48.688;9.428;2023-06-04T09:52:52;4.83;;;4.07;;
1509;SDS011;746;48.688;9.428;2023-06-04T09:55:16;4.03;;;3.73;;
1509;SDS011;746;48.688;9.428;2023-06-04T09:57:44;4.60;;;3.97;;
1509;SDS011;746;48.688;9.428;2023-06-04T10:00:06;4.03;;;3.83;;
1509;SDS011;746;48.688;9.428;2023-06-04T10:02:32;4.37;;;4.07;;
1509;SDS011;746;48.688;9.428;2023-06-04T10:04:55;4.77;;;4.37;;
1509;SDS011;746;48.688;9.428;2023-06-04T10:07:17;4.73;;;4.40;;
1509;SDS011;746;48.688;9.428;2023-06-04T10:09:38;4.37;;;3.97;;
1509;SDS011;746;48.688;9.428;2023-06-04T10:12:05;4.53;;;4.13;;
1509;SDS011;746;48.688;9.428;2023-06-04T10:14:27;6.07;;;3.90;;
1509;SDS011;746;48.688;9.428;2023-06-04T10:16:52;4.23;;;3.83;;
1509;SDS011;746;48.688;9.428;2023-06-04T10:19:15;4.13;;;3.83;;
1509;SDS011;746;48.688;9.428;2023-06-04T10:21:37;4.30;;;3.90;;
1509;SDS011;746;48.688;9.428;2023-06-04T10:23:58;4.60;;;4.10;;
1509;SDS011;746;48.688;9.428;2023-06-04T10:26:20;4.10;;;3.80;;
1509;SDS011;746;48.688;9.428;2023-06-04T10:28:42;4.67;;;4.17;;
1509;SDS011;746;48.688;9.428;2023-06-04T10:31:03;6.50;;;4.40;;
1509;SDS011;746;48.688;9.428;2023-06-04T10:33:25;4.83;;;4.43;;
1509;SDS011;746;48.688;9.428;2023-06-04T10:35:49;6.53;;;4.60;;
1509;SDS011;746;48.688;9.428;2023-06-04T10:38:11;4.70;;;4.30;;
1509;SDS011;746;48.688;9.428;2023-06-04T10:40:33;4.80;;;4.40;;
1509;SDS011;746;48.688;9.428;2023-06-04T10:42:54;7.93;;;4.20;;
1509;SDS011;746;48.688;9.428;2023-06-04T10:45:16;5.30;;;4.90;;
1509;SDS011;746;48.688;9.428;2023-06-04T10:47:37;5.77;;;4.80;;
1509;SDS011;746;48.688;9.428;2023-06-04T10:50:07;5.13;;;4.73;;
1509;SDS011;746;48.688;9.428;2023-06-04T10:52:29;5.17;;;4.77;;
1509;SDS011;746;48.688;9.428;2023-06-04T10:54:50;5.73;;;5.20;;
1509;SDS011;746;48.688;9.428;2023-06-04T10:57:13;5.17;;;4.67;;
1509;SDS011;746;48.688;9.428;2023-06-04T10:59:35;5.10;;;4.60;;
1509;SDS011;746;48.688;9.428;2023-06-04T11:02:04;4.70;;;4.20;;
1509;SDS011;746;48.688;9.428;2023-06-04T11:04:25;4.30;;;4.00;;
1509;SDS011;746;48.688;9.428;2023-06-04T11:06:46;4.07;;;3.80;;
1509;SDS011;746;48.688;9.428;2023-06-04T11:09:09;5.13;;;4.20;;
1509;SDS011;746;48.688;9.428;2023-06-04T11:11:36;5.80;;;4.50;;
1509;SDS011;746;48.688;9.428;2023-06-04T11:14:06;6.10;;;4.10;;
1509;SDS011;746;48.688;9.428;2023-06-04T11:16:27;4.97;;;4.30;;
1509;SDS011;746;48.688;9.428;2023-06-04T11:18:56;4.80;;;4.33;;
1509;SDS011;746;48.688;9.428;2023-06-04T11:21:19;4.70;;;4.30;;
1509;SDS011;746;48.688;9.428;2023-06-04T11:23:40;4.30;;;4.00;;
1509;SDS011;746;48.688;9.428;2023-06-04T11:26:04;4.90;;;4.50;;
1509;SDS011;746;48.688;9.428;2023-06-04T11:28:25;4.73;;;4.40;;
1509;SDS011;746;48.688;9.428;2023-06-04T11:30:55;5.60;;;4.43;;
1509;SDS011;746;48.688;9.428;2023-06-04T11:33:16;4.97;;;4.57;;
1509;SDS011;746;48.688;9.428;2023-06-04T11:35:41;5.17;;;4.67;;
1509;SDS011;746;48.688;9.428;2023-06-04T11:38:03;4.90;;;4.50;;
1509;SDS011;746;48.688;9.428;2023-06-04T11:40:26;4.63;;;4.20;;
1509;SDS011;746;48.688;9.428;2023-06-04T11:42:49;5.20;;;4.57;;
1509;SDS011;746;48.688;9.428;2023-06-04T11:45:11;4.60;;;4.23;;
1509;SDS011;746;48.688;9.428;2023-06-04T11:47:33;4.70;;;4.27;;
1509;SDS011;746;48.688;9.428;2023-06-04T11:49:54;5.47;;;4.87;;
1509;SDS011;746;48.688;9.428;2023-06-04T11:52:17;4.77;;;4.40;;
1509;SDS011;746;48.688;9.428;2023-06-04T11:54:39;6.73;;;4.50;;
1509;SDS011;746;48.688;9.428;2023-06-04T11:57:01;5.17;;;4.67;;
1509;SDS011;746;48.688;9.428;2023-06-04T11:59:23;9.70;;;4.43;;
1509;SDS011;746;48.688;9.428;2023-06-04T12:01:45;4.43;;;4.03;;
1509;SDS011;746;48.688;9.428;2023-06-04T12:04:13;5.27;;;4.77;;
1509;SDS011;746;48.688;9.428;2023-06-04T12:06:35;7.03;;;4.50;;
1509;SDS011;746;48.688;9.428;2023-06-04T12:08:57;5.97;;;4.30;;
1509;SDS011;746;48.688;9.428;2023-06-04T12:11:24;6.43;;;4.57;;
1509;SDS011;746;48.688;9.428;2023-06-04T12:13:46;4.60;;;4.10;;
1509;SDS011;746;48.688;9.428;2023-06-04T12:16:09;4.90;;;4.40;;
1509;SDS011;746;48.688;9.428;2023-06-04T12:18:34;6.03;;;4.67;;
1509;SDS011;746;48.688;9.428;2023-06-04T12:20:56;5.67;;;4.50;;
1509;SDS011;746;48.688;9.428;2023-06-04T12:23:19;4.30;;;4.00;;
1509;SDS011;746;48.688;9.428;2023-06-04T12:25:41;5.90;;;4.70;;
1509;SDS011;746;48.688;9.428;2023-06-04T12:28:03;5.10;;;4.60;;
1509;SDS011;746;48.688;9.428;2023-06-04T12:30:34;4.63;;;4.33;;
1509;SDS011;746;48.688;9.428;2023-06-04T12:32:57;5.17;;;4.77;;
1509;SDS011;746;48.688;9.428;2023-06-04T12:35:19;4.83;;;4.37;;
1509;SDS011;746;48.688;9.428;2023-06-04T12:37:40;5.80;;;4.67;;
1509;SDS011;746;48.688;9.428;2023-06-04T12:40:01;5.00;;;4.60;;
1509;SDS011;746;48.688;9.428;2023-06-04T12:42:24;5.40;;;4.87;;
1509;SDS011;746;48.688;9.428;2023-06-04T12:44:47;4.70;;;4.30;;
1509;SDS011;746;48.688;9.428;2023-06-04T12:47:08;4.60;;;4.20;;
1509;SDS011;746;48.688;9.428;2023-06-04T12:49:31;4.80;;;4.40;;
1509;SDS011;746;48.688;9.428;2023-06-04T12:51:52;5.10;;;4.60;;
1509;SDS011;746;48.688;9.428;2023-06-04T12:54:13;4.13;;;3.87;;
1509;SDS011;746;48.688;9.428;2023-06-04T12:56:35;4.60;;;4.30;;
1509;SDS011;746;48.688;9.428;2023-06-04T12:58:56;4.77;;;4.43;;
1509;SDS011;746;48.688;9.428;2023-06-04T13:01:17;5.13;;;4.70;;
1509;SDS011;746;48.688;9.428;2023-06-04T13:03:40;4.80;;;4.40;;
1509;SDS011;746;48.688;9.428;2023-06-04T13:06:03;4.93;;;4.50;;
1509;SDS011;746;48.688;9.428;2023-06-04T13:08:24;4.27;;;4.07;;
1509;SDS011;746;48.688;9.428;2023-06-04T13:10:45;4.70;;;4.07;;
1509;SDS011;746;48.688;9.428;2023-06-04T13:13:06;4.53;;;4.23;;
1509;SDS011;746;48.688;9.428;2023-06-04T13:15:28;4.50;;;4.20;;
1509;SDS011;746;48.688;9.428;2023-06-04T13:17:49;5.70;;;3.80;;
1509;SDS011;746;48.688;9.428;2023-06-04T13:20:11;4.50;;;4.13;;
1509;SDS011;746;48.688;9.428;2023-06-04T13:22:33;4.30;;;3.97;;
1509;SDS011;746;48.688;9.428;2023-06-04T13:24:55;4.40;;;4.10;;
1509;SDS011;746;48.688;9.428;2023-06-04T13:27:16;4.23;;;3.93;;
1509;SDS011;746;48.688;9.428;2023-06-04T13:29:37;5.93;;;4.43;;
1509;SDS011;746;48.688;9.428;2023-06-04T13:32:00;4.00;;;3.80;;
1509;SDS011;746;48.688;9.428;2023-06-04T13:34:22;4.23;;;3.93;;
1509;SDS011;746;48.688;9.428;2023-06-04T13:36:47;4.30;;;3.90;;
1509;SDS011;746;48.688;9.428;2023-06-04T13:39:09;4.80;;;4.40;;
1509;SDS011;746;48.688;9.428;2023-06-04T13:41:31;4.37;;;4.00;;
1509;SDS011;746;48.688;9.428;2023-06-04T13:43:52;4.07;;;3.73;;
1509;SDS011;746;48.688;9.428;2023-06-04T13:46:13;5.37;;;4.10;;
1509;SDS011;746;48.688;9.428;2023-06-04T13:48:36;4.23;;;3.80;;
1509;SDS011;746;48.688;9.428;2023-06-04T13:50:57;4.47;;;4.17;;
1509;SDS011;746;48.688;9.428;2023-06-04T13:53:18;5.30;;;3.70;;
1509;SDS011;746;48.688;9.428;2023-06-04T13:55:41;4.37;;;3.90;;
1509;SDS011;746;48.688;9.428;2023-06-04T13:58:02;4.97;;;3.67;;
1509;SDS011;746;48.688;9.428;2023-06-04T14:00:23;4.20;;;3.90;;
1509;SDS011;746;48.688;9.428;2023-06-04T14:02:45;4.10;;;3.80;;
1509;SDS011;746;48.688;9.428;2023-06-04T14:05:06;3.80;;;3.60;;
1509;SDS011;746;48.688;9.428;2023-06-04T14:07:27;6.43;;;3.87;;
1509;SDS011;746;48.688;9.428;2023-06-04T14:09:49;3.83;;;3.63;;
1509;SDS011;746;48.688;9.428;2023-06-04T14:12:16;5.40;;;3.90;;
1509;SDS011;746;48.688;9.428;2023-06-04T14:14:37;4.10;;;3.80;;
1509;SDS011;746;48.688;9.428;2023-06-04T14:16:59;4.20;;;3.90;;
1509;SDS011;746;48.688;9.428;2023-06-04T14:19:20;3.93;;;3.63;;
1509;SDS011;746;48.688;9.428;2023-06-04T14:21:43;4.60;;;3.90;;
1509;SDS011;746;48.688;9.428;2023-06-04T14:24:04;4.17;;;3.87;;
1509;SDS011;746;48.688;9.428;2023-06-04T14:26:25;4.63;;;4.23;;
1509;SDS011;746;48.688;9.428;2023-06-04T14:28:48;4.83;;;4.00;;
1509;SDS011;746;48.688;9.428;2023-06-04T14:31:10;4.07;;;3.73;;
1509;SDS011;746;48.688;9.428;2023-06-04T14:33:32;4.00;;;3.73;;
1509;SDS011;746;48.688;9.428;2023-06-04T14:35:55;4.33;;;4.03;;
1509;SDS011;746;48.688;9.428;2023-06-04T14:38:16;4.27;;;3.93;;
1509;SDS011;746;48.688;9.428;2023-06-04T14:40:37;4.03;;;3.73;;
1509;SDS011;746;48.688;9.428;2023-06-04T14:42:58;3.93;;;3.73;;
1509;SDS011;746;48.688;9.428;2023-06-04T14:45:21;4.43;;;4.03;;
1509;SDS011;746;48.688;9.428;2023-06-04T14:47:42;4.33;;;4.03;;
1509;SDS011;746;48.688;9.428;2023-06-04T14:50:04;4.10;;;3.90;;
1509;SDS011;746;48.688;9.428;2023-06-04T14:52:25;5.43;;;3.90;;
1509;SDS011;746;48.688;9.428;2023-06-04T14:54:48;4.27;;;3.97;;
1509;SDS011;746;48.688;9.428;2023-06-04T14:57:12;4.30;;;3.90;;